Time;durP1;ratioP1;P1;durP2;ratioP2;P2;SDS_P1;SDS_P2;PMS_P1;PMS_P2;Temp;Humidity;BMP_temperature;BMP_pressure;BME280_temperature;BME280_humidity;BME280_pressure;Samples;Min_cycle;Max_cycle;Signal;HPM_P1;HPM_P2
2021/01/29 00:00:18;;;;;;;;;0.00;0.00;;;;;;;;4985800;28;8884;-76
2021/01/29 00:02:46;;;;;;;;;1.00;1.00;;;;;;;;5001083;28;8888;-76
2021/01/29 00:05:13;;;;;;;;;0.00;0.00;;;;;;;;5007696;28;8867;-80
2021/01/29 00:07:41;;;;;;;;;0.00;0.00;;;;;;;;5002966;28;8887;-77
2021/01/29 00:10:10;;;;;;;;;1.00;1.00;;;;;;;;4968611;28;8910;-82
2021/01/29 00:12:37;;;;;;;;;0.50;0.00;;;;;;;;5001259;28;8961;-80
2021/01/29 00:15:06;;;;;;;;;0.00;0.00;;;;;;;;5005236;28;8872;-82
2021/01/29 00:17:33;;;;;;;;;1.00;1.00;;;;;;;;5001634;28;8929;-85
2021/01/29 00:20:01;;;;;;;;;0.75;0.75;;;;;;;;5005420;28;8875;-86
2021/01/29 00:22:28;;;;;;;;;1.00;1.00;;;;;;;;5005889;28;8890;-86
2021/01/29 00:24:54;;;;;;;;;0.00;0.00;;;;;;;;5001240;28;8941;-78
2021/01/29 00:27:21;;;;;;;;;1.00;1.00;;;;;;;;5003677;28;8872;-78
2021/01/29 00:29:48;;;;;;;;;2.00;0.25;;;;;;;;5007375;28;9019;-79
2021/01/29 00:32:15;;;;;;;;;0.00;0.00;;;;;;;;5003471;28;8816;-82
2021/01/29 00:34:42;;;;;;;;;0.75;0.75;;;;;;;;4977088;28;8888;-77
2021/01/29 00:37:10;;;;;;;;;1.00;1.00;;;;;;;;5005008;28;8941;-84
2021/01/29 00:39:36;;;;;;;;;0.00;0.00;;;;;;;;5003463;28;8875;-78
2021/01/29 00:42:04;;;;;;;;;0.50;0.50;;;;;;;;5003094;28;8874;-81
2021/01/29 00:44:31;;;;;;;;;0.00;0.00;;;;;;;;5004644;28;8860;-79
2021/01/29 00:46:58;;;;;;;;;0.00;0.00;;;;;;;;5003551;28;8868;-76
2021/01/29 00:49:24;;;;;;;;;0.00;0.00;;;;;;;;5004993;28;8888;-78
2021/01/29 00:51:51;;;;;;;;;0.00;0.00;;;;;;;;5003912;28;8888;-84
2021/01/29 00:54:20;;;;;;;;;0.00;0.00;;;;;;;;4997729;28;8887;-77
2021/01/29 00:56:47;;;;;;;;;0.00;0.00;;;;;;;;5003203;28;8848;-77
2021/01/29 00:59:14;;;;;;;;;1.00;0.00;;;;;;;;5003418;28;8903;-75
2021/01/29 01:01:41;;;;;;;;;1.00;0.75;;;;;;;;4985839;28;9606;-82
2021/01/29 01:04:08;;;;;;;;;0.00;0.00;;;;;;;;5003207;28;8884;-82
2021/01/29 01:06:35;;;;;;;;;0.00;0.00;;;;;;;;5004443;28;9650;-81
2021/01/29 01:09:02;;;;;;;;;0.00;0.00;;;;;;;;5003195;28;8907;-77
2021/01/29 01:11:30;;;;;;;;;0.00;0.00;;;;;;;;5002399;28;9622;-77
2021/01/29 01:13:56;;;;;;;;;0.00;0.00;;;;;;;;5003439;28;8973;-76
2021/01/29 01:16:23;;;;;;;;;0.00;0.00;;;;;;;;5004322;28;8916;-78
2021/01/29 01:18:50;;;;;;;;;0.00;0.00;;;;;;;;5004382;28;8875;-76
2021/01/29 01:21:17;;;;;;;;;0.00;0.00;;;;;;;;5003185;28;8884;-76
2021/01/29 01:23:44;;;;;;;;;0.00;0.00;;;;;;;;4995755;28;8902;-92
2021/01/29 01:26:10;;;;;;;;;0.00;0.00;;;;;;;;5003671;28;8882;-86
2021/01/29 01:28:38;;;;;;;;;0.00;0.00;;;;;;;;4983189;28;8989;-88
2021/01/29 01:31:05;;;;;;;;;0.00;0.00;;;;;;;;4998075;28;8816;-85
2021/01/29 01:33:32;;;;;;;;;0.00;0.00;;;;;;;;5005113;28;8905;-81
2021/01/29 01:35:59;;;;;;;;;0.00;0.00;;;;;;;;5002415;28;8868;-84
2021/01/29 01:38:26;;;;;;;;;0.00;0.00;;;;;;;;5003729;28;8876;-83
2021/01/29 01:40:53;;;;;;;;;0.00;0.00;;;;;;;;4985118;28;9002;-84
2021/01/29 01:43:19;;;;;;;;;0.00;0.00;;;;;;;;4999575;28;9610;-82
2021/01/29 01:46:14;;;;;;;;;0.75;0.00;;;;;;;;5004393;28;9098;-81
2021/01/29 01:48:56;;;;;;;;;0.00;0.00;;;;;;;;4979881;28;8875;-86
2021/01/29 01:51:34;;;;;;;;;0.00;0.00;;;;;;;;4999140;28;8896;-86
2021/01/29 01:54:05;;;;;;;;;0.00;0.00;;;;;;;;5015050;28;8876;-85
2021/01/29 01:56:38;;;;;;;;;0.00;0.00;;;;;;;;5003199;28;8872;-83
2021/01/29 01:59:10;;;;;;;;;0.00;0.00;;;;;;;;5004432;28;9045;-85
2021/01/29 02:01:38;;;;;;;;;0.00;0.00;;;;;;;;5000811;28;8906;-91
2021/01/29 02:04:06;;;;;;;;;0.00;0.00;;;;;;;;5002641;28;8879;-88
2021/01/29 02:06:37;;;;;;;;;0.00;0.00;;;;;;;;4995593;28;8997;-92
2021/01/29 02:09:06;;;;;;;;;0.00;0.00;;;;;;;;5002362;28;9764;-83
2021/01/29 02:11:56;;;;;;;;;0.00;0.00;;;;;;;;5002061;28;9098;-84
2021/01/29 02:14:23;;;;;;;;;0.00;0.00;;;;;;;;4993957;28;9042;-78
2021/01/29 02:16:59;;;;;;;;;1.00;0.00;;;;;;;;5004011;28;8921;-83
2021/01/29 02:19:59;;;;;;;;;0.00;0.00;;;;;;;;4995973;28;9042;-86
2021/01/29 02:22:46;;;;;;;;;0.00;0.00;;;;;;;;4981991;28;8982;-89
2021/01/29 02:25:45;;;;;;;;;0.00;0.00;;;;;;;;5005154;28;9033;-88
2021/01/29 02:28:18;;;;;;;;;1.00;0.00;;;;;;;;4949050;28;9235;-91
2021/01/29 02:31:01;;;;;;;;;0.00;0.00;;;;;;;;5003066;28;9099;-82
2021/01/29 02:34:07;;;;;;;;;0.00;0.00;;;;;;;;4985501;28;9324;-91
2021/01/29 02:37:00;;;;;;;;;0.00;0.00;;;;;;;;4941670;28;9057;-91
2021/01/29 02:39:49;;;;;;;;;0.00;0.00;;;;;;;;4995135;28;9261;-89
2021/01/29 02:42:41;;;;;;;;;0.00;0.00;;;;;;;;5000783;28;9229;-83
2021/01/29 02:45:19;;;;;;;;;0.00;0.00;;;;;;;;4993275;28;9053;-85
2021/01/29 02:47:54;;;;;;;;;0.00;0.00;;;;;;;;4994399;28;9041;-89
2021/01/29 02:50:43;;;;;;;;;0.00;0.00;;;;;;;;5003570;28;9099;-92
2021/01/29 02:53:20;;;;;;;;;0.00;0.00;;;;;;;;4992130;28;9782;-85
2021/01/29 02:55:53;;;;;;;;;0.00;0.00;;;;;;;;5003811;28;9231;-85
2021/01/29 02:58:27;;;;;;;;;0.00;0.00;;;;;;;;4995560;28;9122;-89
2021/01/29 03:00:59;;;;;;;;;0.00;0.00;;;;;;;;5008913;28;9035;-87
2021/01/29 03:03:33;;;;;;;;;0.00;0.00;;;;;;;;5011087;28;9052;-92
2021/01/29 03:06:04;;;;;;;;;0.00;0.00;;;;;;;;5001058;28;9037;-90
2021/01/29 03:08:35;;;;;;;;;0.00;0.00;;;;;;;;5004358;28;9029;-90
2021/01/29 03:11:08;;;;;;;;;0.00;0.00;;;;;;;;4998505;28;9212;-86
2021/01/29 03:13:40;;;;;;;;;0.00;0.00;;;;;;;;5003245;28;9133;-88
2021/01/29 03:16:14;;;;;;;;;0.00;0.00;;;;;;;;5003225;28;9242;-92
2021/01/29 03:18:50;;;;;;;;;0.00;0.00;;;;;;;;5003203;28;9060;-91
2021/01/29 03:21:21;;;;;;;;;0.00;0.00;;;;;;;;5002889;28;9058;-90
2021/01/29 03:23:51;;;;;;;;;0.00;0.00;;;;;;;;5002698;28;9768;-87
2021/01/29 03:26:22;;;;;;;;;0.00;0.00;;;;;;;;5002897;28;9146;-88
2021/01/29 03:28:52;;;;;;;;;0.00;0.00;;;;;;;;4982836;28;9145;-90
2021/01/29 03:31:21;;;;;;;;;0.00;0.00;;;;;;;;5003160;28;9176;-88
2021/01/29 03:33:53;;;;;;;;;0.00;0.00;;;;;;;;5002161;28;10008;-90
2021/01/29 03:36:22;;;;;;;;;0.00;0.00;;;;;;;;4987963;28;9102;-79
2021/01/29 03:38:53;;;;;;;;;0.00;0.00;;;;;;;;4984790;28;9889;-86
2021/01/29 03:41:24;;;;;;;;;0.00;0.00;;;;;;;;5005159;28;9025;-87
2021/01/29 03:44:00;;;;;;;;;0.00;0.00;;;;;;;;5005433;28;9850;-91
2021/01/29 03:46:36;;;;;;;;;0.00;0.00;;;;;;;;5004494;28;9210;-90
2021/01/29 03:49:11;;;;;;;;;0.00;0.00;;;;;;;;5006204;28;9219;-82
2021/01/29 03:51:48;;;;;;;;;0.00;0.00;;;;;;;;5007371;28;9377;-90
2021/01/29 03:54:21;;;;;;;;;1.00;0.00;;;;;;;;5001105;28;9411;-89
2021/01/29 03:56:59;;;;;;;;;0.00;0.00;;;;;;;;4987488;28;10134;-89
2021/01/29 03:59:34;;;;;;;;;0.00;0.00;;;;;;;;5006479;28;9275;-79
2021/01/29 04:02:12;;;;;;;;;0.00;0.00;;;;;;;;4987668;28;9426;-84
2021/01/29 04:04:46;;;;;;;;;0.00;0.00;;;;;;;;5006063;28;9373;-80
2021/01/29 04:07:18;;;;;;;;;0.00;0.00;;;;;;;;5003456;28;10045;-81
2021/01/29 04:09:50;;;;;;;;;0.00;0.00;;;;;;;;4988551;28;9197;-86
2021/01/29 04:12:22;;;;;;;;;0.33;0.33;;;;;;;;5005465;28;9357;-84
2021/01/29 04:14:54;;;;;;;;;0.00;0.00;;;;;;;;5004699;28;9291;-80
2021/01/29 04:17:26;;;;;;;;;0.00;0.00;;;;;;;;5006759;28;9299;-87
2021/01/29 04:19:59;;;;;;;;;0.00;0.00;;;;;;;;5002933;28;9618;-84
2021/01/29 04:22:30;;;;;;;;;1.00;1.00;;;;;;;;5006963;28;9343;-78
2021/01/29 04:25:00;;;;;;;;;2.67;2.67;;;;;;;;5002836;28;9259;-85
2021/01/29 04:27:32;;;;;;;;;2.00;1.00;;;;;;;;4998671;28;9222;-81
2021/01/29 04:30:03;;;;;;;;;6.67;2.33;;;;;;;;5005457;28;9428;-77
2021/01/29 04:32:36;;;;;;;;;3.33;1.00;;;;;;;;5004684;28;10122;-79
2021/01/29 04:35:06;;;;;;;;;1.00;1.00;;;;;;;;5006140;28;9350;-78
2021/01/29 04:37:35;;;;;;;;;3.75;2.50;;;;;;;;5002606;28;9307;-77
2021/01/29 04:40:12;;;;;;;;;2.33;2.33;;;;;;;;5005211;28;9521;-79
2021/01/29 04:42:55;;;;;;;;;3.67;2.00;;;;;;;;5000049;28;9460;-78
2021/01/29 04:45:34;;;;;;;;;3.00;2.00;;;;;;;;4999110;28;10159;-81
2021/01/29 04:48:07;;;;;;;;;4.50;3.25;;;;;;;;5003107;28;9530;-78
2021/01/29 04:50:42;;;;;;;;;8.00;4.00;;;;;;;;4983455;28;10031;-78
2021/01/29 04:53:40;;;;;;;;;2.25;2.25;;;;;;;;5002049;28;9504;-77
2021/01/29 04:56:43;;;;;;;;;8.25;6.75;;;;;;;;5001667;28;9511;-77
2021/01/29 04:59:32;;;;;;;;;3.00;3.00;;;;;;;;4981676;28;9576;-76
2021/01/29 05:02:25;;;;;;;;;3.00;3.00;;;;;;;;5004008;28;9646;-76
2021/01/29 05:05:19;;;;;;;;;3.00;1.00;;;;;;;;4992848;28;9627;-76
2021/01/29 05:08:00;;;;;;;;;5.75;3.25;;;;;;;;5002329;28;9706;-75
2021/01/29 05:10:50;;;;;;;;;2.00;2.00;;;;;;;;5003631;28;9768;-75
2021/01/29 05:13:38;;;;;;;;;3.25;2.00;;;;;;;;5001260;28;9486;-76
2021/01/29 05:16:25;;;;;;;;;4.00;1.75;;;;;;;;5008054;28;9601;-78
2021/01/29 05:19:18;;;;;;;;;2.00;2.00;;;;;;;;5017318;28;9529;-78
2021/01/29 05:21:57;;;;;;;;;7.50;2.00;;;;;;;;5010750;28;9553;-81
2021/01/29 05:24:40;;;;;;;;;3.00;1.33;;;;;;;;5009687;28;9662;-76
2021/01/29 05:27:35;;;;;;;;;1.00;1.00;;;;;;;;5007833;28;9271;-75
2021/01/29 05:30:18;;;;;;;;;4.50;2.00;;;;;;;;4983105;28;9416;-75
2021/01/29 05:33:24;;;;;;;;;3.00;3.00;;;;;;;;4999055;28;10200;-81
2021/01/29 05:36:10;;;;;;;;;4.33;2.00;;;;;;;;4947190;28;9452;-74
2021/01/29 05:38:55;;;;;;;;;5.00;3.00;;;;;;;;4990124;28;9431;-74
2021/01/29 05:42:00;;;;;;;;;3.00;0.00;;;;;;;;5001563;28;9509;-74
2021/01/29 05:45:02;;;;;;;;;1.00;1.00;;;;;;;;4995848;28;9348;-74
2021/01/29 05:48:06;;;;;;;;;4.00;2.00;;;;;;;;5007356;28;9281;-75
2021/01/29 05:50:54;;;;;;;;;5.00;1.00;;;;;;;;5005570;28;9376;-76
2021/01/29 05:53:39;;;;;;;;;1.67;1.00;;;;;;;;4979413;28;9196;-75
2021/01/29 05:56:12;;;;;;;;;3.00;1.00;;;;;;;;5002890;28;9370;-74
2021/01/29 05:58:54;;;;;;;;;2.00;2.00;;;;;;;;4996402;28;9337;-73
2021/01/29 06:01:48;;;;;;;;;2.00;0.00;;;;;;;;5003869;28;10070;-74
2021/01/29 06:04:30;;;;;;;;;0.67;0.67;;;;;;;;5010738;28;9299;-74
2021/01/29 06:07:33;;;;;;;;;2.33;2.00;;;;;;;;4998202;28;9277;-74
2021/01/29 06:10:35;;;;;;;;;2.75;2.75;;;;;;;;4949406;28;9467;-74
2021/01/29 06:13:40;;;;;;;;;6.00;1.00;;;;;;;;4957045;28;9714;-79
2021/01/29 06:16:55;;;;;;;;;6.25;2.00;;;;;;;;5003236;28;9516;-77
2021/01/29 06:19:49;;;;;;;;;1.50;0.75;;;;;;;;4958522;28;9413;-77
2021/01/29 06:22:47;;;;;;;;;3.00;1.00;;;;;;;;4997742;28;9526;-74
2021/01/29 06:25:35;;;;;;;;;1.75;1.00;;;;;;;;5002557;28;9907;-74
2021/01/29 06:28:26;;;;;;;;;2.25;2.25;;;;;;;;4993593;28;9891;-75
2021/01/29 06:31:16;;;;;;;;;2.25;1.00;;;;;;;;5000250;28;9589;-74
2021/01/29 06:34:02;;;;;;;;;3.00;1.00;;;;;;;;5003883;28;9808;-74
2021/01/29 06:36:47;;;;;;;;;7.50;2.00;;;;;;;;5001153;28;9787;-75
2021/01/29 06:39:23;;;;;;;;;1.00;0.75;;;;;;;;5001041;28;9907;-74
2021/01/29 06:42:24;;;;;;;;;3.25;1.50;;;;;;;;5001340;28;9594;-76
2021/01/29 06:45:21;;;;;;;;;1.50;1.50;;;;;;;;4955835;28;9750;-75
2021/01/29 06:48:36;;;;;;;;;2.00;2.00;;;;;;;;4997909;28;9791;-75
2021/01/29 06:51:32;;;;;;;;;4.00;1.25;;;;;;;;4947621;28;9734;-72
2021/01/29 06:54:10;;;;;;;;;2.50;0.75;;;;;;;;4981994;28;9619;-76
2021/01/29 06:57:05;;;;;;;;;2.00;2.00;;;;;;;;5002287;28;9602;-77
2021/01/29 06:59:50;;;;;;;;;2.00;0.75;;;;;;;;4997717;28;9810;-75
2021/01/29 07:02:38;;;;;;;;;1.00;1.00;;;;;;;;4997905;28;9515;-69
2021/01/29 07:05:34;;;;;;;;;1.75;0.00;;;;;;;;5002232;28;9653;-69
2021/01/29 07:08:14;;;;;;;;;6.00;2.25;;;;;;;;4989732;28;9505;-70
2021/01/29 07:11:10;;;;;;;;;3.00;2.00;;;;;;;;4996845;28;9697;-68
2021/01/29 07:14:01;;;;;;;;;1.00;1.00;;;;;;;;4998073;28;9494;-70
2021/01/29 07:16:39;;;;;;;;;3.00;2.00;;;;;;;;5001158;28;9601;-71
2021/01/29 07:19:20;;;;;;;;;4.50;1.00;;;;;;;;4994388;28;9451;-69
2021/01/29 07:22:10;;;;;;;;;6.00;2.00;;;;;;;;5003632;28;9599;-68
2021/01/29 07:24:43;;;;;;;;;4.00;1.75;;;;;;;;4998825;28;9490;-69
2021/01/29 07:27:21;;;;;;;;;1.00;1.00;;;;;;;;4981696;28;9460;-69
2021/01/29 07:30:06;;;;;;;;;2.33;1.00;;;;;;;;4981898;28;9357;-70
2021/01/29 07:32:43;;;;;;;;;0.75;0.25;;;;;;;;4996173;28;9365;-71
2021/01/29 07:35:19;;;;;;;;;2.67;1.00;;;;;;;;4999118;28;9503;-72
2021/01/29 07:37:59;;;;;;;;;4.50;1.75;;;;;;;;5004191;28;9501;-69
2021/01/29 07:41:03;;;;;;;;;1.00;1.00;;;;;;;;4996029;28;9485;-70
2021/01/29 07:43:42;;;;;;;;;1.50;1.50;;;;;;;;5005314;28;9566;-70
2021/01/29 07:46:32;;;;;;;;;2.00;0.00;;;;;;;;5002529;28;9520;-70
2021/01/29 07:49:33;;;;;;;;;0.67;0.33;;;;;;;;4996812;28;9419;-69
2021/01/29 07:52:08;;;;;;;;;2.00;0.25;;;;;;;;5001643;28;9366;-69
2021/01/29 07:55:09;;;;;;;;;1.00;1.00;;;;;;;;5000933;28;9580;-70
2021/01/29 07:57:56;;;;;;;;;3.00;2.25;;;;;;;;4985238;28;9575;-70
2021/01/29 08:00:26;;;;;;;;;2.00;0.75;;;;;;;;5001843;28;9600;-71
2021/01/29 08:03:28;;;;;;;;;1.00;1.00;;;;;;;;4997908;28;10295;-71
2021/01/29 08:06:03;;;;;;;;;1.50;1.00;;;;;;;;4993426;28;9512;-71
2021/01/29 08:08:32;;;;;;;;;5.50;2.75;;;;;;;;4987488;28;9586;-71
2021/01/29 08:11:01;;;;;;;;;3.00;1.00;;;;;;;;4995613;28;9697;-71
2021/01/29 08:13:39;;;;;;;;;1.25;0.75;;;;;;;;4987781;28;9570;-71
2021/01/29 08:16:20;;;;;;;;;1.50;1.00;;;;;;;;5000091;28;9574;-71
2021/01/29 08:18:54;;;;;;;;;1.50;1.50;;;;;;;;4990296;28;9654;-71
2021/01/29 08:21:59;;;;;;;;;2.00;1.00;;;;;;;;5003505;28;9637;-72
2021/01/29 08:24:48;;;;;;;;;0.00;0.00;;;;;;;;4972295;28;10437;-71
2021/01/29 08:27:52;;;;;;;;;2.00;2.00;;;;;;;;5015937;28;9566;-72
2021/01/29 08:30:32;;;;;;;;;2.00;0.00;;;;;;;;4988032;28;9752;-71
2021/01/29 08:33:20;;;;;;;;;1.00;1.00;;;;;;;;5003685;28;9650;-71
2021/01/29 08:36:16;;;;;;;;;3.00;2.00;;;;;;;;5003630;28;9655;-71
2021/01/29 08:38:50;;;;;;;;;1.00;1.00;;;;;;;;5002281;28;9816;-71
2021/01/29 08:41:26;;;;;;;;;2.00;1.50;;;;;;;;5015726;28;9684;-71
2021/01/29 08:44:14;;;;;;;;;0.00;0.00;;;;;;;;4991441;28;9811;-71
2021/01/29 08:46:53;;;;;;;;;0.25;0.25;;;;;;;;5005608;28;9732;-72
2021/01/29 08:49:37;;;;;;;;;4.75;1.00;;;;;;;;5002816;28;9899;-72
2021/01/29 08:52:14;;;;;;;;;2.25;0.00;;;;;;;;5011604;28;9747;-72
2021/01/29 08:55:08;;;;;;;;;2.50;1.00;;;;;;;;5000586;28;9788;-72
2021/01/29 08:57:46;;;;;;;;;0.00;0.00;;;;;;;;4994870;28;9898;-72
2021/01/29 09:00:25;;;;;;;;;3.50;2.00;;;;;;;;5005537;28;9627;-73
2021/01/29 09:03:04;;;;;;;;;1.00;1.00;;;;;;;;5004055;28;9925;-72
2021/01/29 09:05:33;;;;;;;;;3.00;1.00;;;;;;;;5005361;28;9943;-72
2021/01/29 09:08:04;;;;;;;;;2.00;1.00;;;;;;;;5008620;28;9783;-72
2021/01/29 09:10:58;;;;;;;;;3.50;1.00;;;;;;;;5019339;28;9735;-73
2021/01/29 09:13:26;;;;;;;;;6.25;0.75;;;;;;;;4992163;28;9754;-73
2021/01/29 09:15:58;;;;;;;;;1.00;1.00;;;;;;;;5004239;28;9830;-73
2021/01/29 09:18:30;;;;;;;;;3.75;2.00;;;;;;;;5010448;28;9902;-71
2021/01/29 09:21:11;;;;;;;;;4.00;0.75;;;;;;;;4992027;28;9735;-72
2021/01/29 09:23:48;;;;;;;;;5.75;1.50;;;;;;;;4996324;28;9744;-72
2021/01/29 09:26:21;;;;;;;;;0.00;0.00;;;;;;;;5004359;28;9865;-73
2021/01/29 09:28:55;;;;;;;;;3.25;0.25;;;;;;;;5003867;28;10443;-71
2021/01/29 09:31:26;;;;;;;;;2.00;2.00;;;;;;;;4995716;28;9580;-71
2021/01/29 09:33:58;;;;;;;;;3.00;2.00;;;;;;;;5004170;28;9655;-72
2021/01/29 09:36:28;;;;;;;;;6.00;1.25;;;;;;;;5004921;28;9579;-72
2021/01/29 09:38:59;;;;;;;;;1.67;1.00;;;;;;;;4993414;28;9499;-72
2021/01/29 09:41:29;;;;;;;;;3.25;2.00;;;;;;;;4991545;28;9433;-71
2021/01/29 09:44:02;;;;;;;;;0.50;0.50;;;;;;;;4998995;28;9535;-70
2021/01/29 09:46:31;;;;;;;;;1.33;1.00;;;;;;;;5010137;28;9441;-70
2021/01/29 09:49:01;;;;;;;;;2.00;1.00;;;;;;;;5001722;28;9286;-71
2021/01/29 09:51:43;;;;;;;;;1.00;1.00;;;;;;;;5007691;28;9348;-71
2021/01/29 09:54:15;;;;;;;;;2.75;1.00;;;;;;;;5003244;28;9421;-71
2021/01/29 09:56:45;;;;;;;;;4.00;1.00;;;;;;;;5007482;28;9437;-71
2021/01/29 09:59:38;;;;;;;;;1.00;1.00;;;;;;;;5003204;28;9421;-71
2021/01/29 10:02:11;;;;;;;;;1.00;1.00;;;;;;;;5011884;28;9312;-71
2021/01/29 10:05:07;;;;;;;;;3.00;1.00;;;;;;;;5015799;28;9415;-71
2021/01/29 10:07:37;;;;;;;;;1.00;1.00;;;;;;;;5013134;28;9233;-71
2021/01/29 10:10:09;;;;;;;;;7.00;1.00;;;;;;;;5004552;28;9208;-72
2021/01/29 10:12:41;;;;;;;;;1.00;1.00;;;;;;;;4986115;28;9261;-71
2021/01/29 10:15:16;;;;;;;;;0.33;0.00;;;;;;;;4997710;28;9200;-72
2021/01/29 10:17:47;;;;;;;;;2.00;2.00;;;;;;;;4998387;28;9271;-72
2021/01/29 10:20:21;;;;;;;;;1.33;1.33;;;;;;;;4991893;28;9426;-72
2021/01/29 10:23:04;;;;;;;;;4.00;1.33;;;;;;;;5009037;28;9288;-72
2021/01/29 10:25:43;;;;;;;;;1.00;1.00;;;;;;;;5003465;28;9261;-71
2021/01/29 10:28:16;;;;;;;;;1.00;0.33;;;;;;;;5006076;28;9286;-72
2021/01/29 10:30:48;;;;;;;;;1.67;1.00;;;;;;;;4999106;28;9217;-72
2021/01/29 10:33:20;;;;;;;;;2.00;1.00;;;;;;;;5003176;28;9220;-71
2021/01/29 10:35:51;;;;;;;;;1.00;1.00;;;;;;;;5012828;28;9350;-71
2021/01/29 10:38:21;;;;;;;;;0.00;0.00;;;;;;;;5005998;28;9356;-71
2021/01/29 10:41:03;;;;;;;;;2.00;0.00;;;;;;;;4994540;28;9201;-71
2021/01/29 10:43:38;;;;;;;;;4.00;0.00;;;;;;;;5006276;28;9677;-71
2021/01/29 10:46:39;;;;;;;;;1.00;1.00;;;;;;;;5016277;28;9204;-71
2021/01/29 10:49:13;;;;;;;;;1.00;1.00;;;;;;;;4986172;28;9126;-71
2021/01/29 10:51:56;;;;;;;;;1.00;1.00;;;;;;;;5006484;28;8844;-71
2021/01/29 10:54:24;;;;;;;;;1.75;1.00;;;;;;;;5007159;28;9045;-72
2021/01/29 10:56:59;;;;;;;;;2.75;1.00;;;;;;;;5007761;28;9759;-71
2021/01/29 10:59:30;;;;;;;;;2.00;0.00;;;;;;;;5006123;28;9666;-70
2021/01/29 11:02:01;;;;;;;;;2.00;0.00;;;;;;;;5007653;28;8914;-71
2021/01/29 11:04:31;;;;;;;;;1.25;1.25;;;;;;;;5006927;28;8876;-71
2021/01/29 11:07:00;;;;;;;;;1.75;0.00;;;;;;;;4999237;28;8881;-71
2021/01/29 11:09:31;;;;;;;;;3.00;2.00;;;;;;;;5007168;28;8960;-71
2021/01/29 11:12:21;;;;;;;;;0.50;0.50;;;;;;;;5013424;28;8881;-71
2021/01/29 11:14:55;;;;;;;;;2.25;1.00;;;;;;;;5004878;28;8894;-72
2021/01/29 11:17:29;;;;;;;;;0.75;0.25;;;;;;;;4998216;28;8895;-70
2021/01/29 11:19:58;;;;;;;;;0.00;0.00;;;;;;;;4996156;28;9000;-69
2021/01/29 11:22:50;;;;;;;;;5.00;0.50;;;;;;;;4990069;28;8872;-68
2021/01/29 11:25:43;;;;;;;;;2.00;0.00;;;;;;;;4994969;28;8904;-70
2021/01/29 11:28:19;;;;;;;;;0.00;0.00;;;;;;;;4997900;28;8899;-71
2021/01/29 11:30:55;;;;;;;;;1.00;0.00;;;;;;;;5007239;28;8889;-70
2021/01/29 11:33:27;;;;;;;;;0.00;0.00;;;;;;;;5000552;28;8958;-69
2021/01/29 11:35:59;;;;;;;;;0.50;0.50;;;;;;;;4995844;28;8878;-70
2021/01/29 11:38:54;;;;;;;;;1.00;0.00;;;;;;;;4988418;28;8895;-69
2021/01/29 11:41:33;;;;;;;;;0.00;0.00;;;;;;;;4987201;28;8921;-70
2021/01/29 11:44:10;;;;;;;;;0.00;0.00;;;;;;;;5001896;28;8887;-70
2021/01/29 11:46:47;;;;;;;;;1.75;0.75;;;;;;;;5001508;28;8908;-70
2021/01/29 11:49:16;;;;;;;;;0.00;0.00;;;;;;;;5006098;28;8895;-70
2021/01/29 11:51:55;;;;;;;;;0.00;0.00;;;;;;;;5004764;28;8879;-70
2021/01/29 11:54:33;;;;;;;;;0.00;0.00;;;;;;;;4986102;28;8993;-70
2021/01/29 11:57:04;;;;;;;;;1.00;1.00;;;;;;;;5005260;28;9042;-70
2021/01/29 11:59:44;;;;;;;;;3.33;0.67;;;;;;;;5004760;28;9078;-70
2021/01/29 12:02:25;;;;;;;;;0.00;0.00;;;;;;;;5004857;28;8941;-70
2021/01/29 12:04:55;;;;;;;;;0.00;0.00;;;;;;;;4999568;28;9788;-71
2021/01/29 12:07:28;;;;;;;;;0.00;0.00;;;;;;;;5006051;28;8887;-70
2021/01/29 12:10:06;;;;;;;;;1.50;0.00;;;;;;;;4997428;28;8867;-70
2021/01/29 12:12:39;;;;;;;;;0.00;0.00;;;;;;;;5003447;28;8889;-69
2021/01/29 12:15:15;;;;;;;;;0.00;0.00;;;;;;;;4997376;28;8918;-70
2021/01/29 12:17:50;;;;;;;;;0.00;0.00;;;;;;;;4998425;28;8880;-70
2021/01/29 12:20:20;;;;;;;;;0.00;0.00;;;;;;;;5004593;28;8941;-71
2021/01/29 12:22:51;;;;;;;;;0.25;0.25;;;;;;;;5003270;28;8863;-70
2021/01/29 12:25:57;;;;;;;;;1.00;1.00;;;;;;;;5003982;28;8891;-71
2021/01/29 12:28:47;;;;;;;;;0.50;0.00;;;;;;;;4991068;28;8918;-71
2021/01/29 12:31:26;;;;;;;;;1.75;0.75;;;;;;;;4956370;28;8929;-70
2021/01/29 12:33:55;;;;;;;;;0.50;0.50;;;;;;;;5003945;28;8880;-70
2021/01/29 12:36:25;;;;;;;;;3.25;1.00;;;;;;;;5001166;28;8888;-71
2021/01/29 12:38:58;;;;;;;;;0.00;0.00;;;;;;;;5003470;28;8890;-71
2021/01/29 12:41:33;;;;;;;;;0.00;0.00;;;;;;;;5003518;28;9556;-71
2021/01/29 12:44:17;;;;;;;;;1.00;0.75;;;;;;;;5000205;28;8916;-71
2021/01/29 12:46:53;;;;;;;;;1.00;1.00;;;;;;;;5000368;28;8871;-70
2021/01/29 12:49:28;;;;;;;;;2.00;0.67;;;;;;;;5002329;28;8867;-70
2021/01/29 12:51:59;;;;;;;;;2.25;0.00;;;;;;;;5003575;28;8968;-71
2021/01/29 12:54:33;;;;;;;;;0.00;0.00;;;;;;;;5005228;28;8957;-71
2021/01/29 12:57:04;;;;;;;;;0.00;0.00;;;;;;;;5003658;28;8995;-71
2021/01/29 12:59:38;;;;;;;;;0.00;0.00;;;;;;;;5000943;28;8874;-72
2021/01/29 13:02:23;;;;;;;;;0.33;0.33;;;;;;;;4998023;28;9078;-70
2021/01/29 13:04:54;;;;;;;;;0.33;0.33;;;;;;;;5004540;28;9065;-71
2021/01/29 13:07:24;;;;;;;;;1.00;1.00;;;;;;;;5005454;28;9066;-71
2021/01/29 13:10:03;;;;;;;;;2.00;0.33;;;;;;;;5004220;28;9154;-70
2021/01/29 13:12:53;;;;;;;;;1.33;1.00;;;;;;;;5005732;28;9259;-72
2021/01/29 13:15:46;;;;;;;;;3.00;1.00;;;;;;;;4992732;28;9402;-71
2021/01/29 13:18:21;;;;;;;;;1.00;0.00;;;;;;;;5004536;28;9357;-70
2021/01/29 13:20:50;;;;;;;;;1.33;0.67;;;;;;;;5004751;28;9823;-71
2021/01/29 13:23:21;;;;;;;;;2.00;0.67;;;;;;;;5003792;28;9271;-71
2021/01/29 13:25:59;;;;;;;;;0.67;0.67;;;;;;;;5005045;28;9490;-71
2021/01/29 13:28:28;;;;;;;;;1.00;1.00;;;;;;;;5007926;28;9213;-71
2021/01/29 13:30:56;;;;;;;;;3.00;1.00;;;;;;;;5005399;28;9224;-71
2021/01/29 13:33:26;;;;;;;;;1.67;1.00;;;;;;;;5003103;28;9379;-71
2021/01/29 13:36:05;;;;;;;;;2.67;1.00;;;;;;;;4987107;28;9305;-71
2021/01/29 13:38:34;;;;;;;;;0.00;0.00;;;;;;;;5004801;28;9296;-71
2021/01/29 13:41:09;;;;;;;;;0.67;0.67;;;;;;;;5004420;28;10218;-71
2021/01/29 13:43:36;;;;;;;;;0.50;0.50;;;;;;;;5003301;28;9623;-69
2021/01/29 13:46:06;;;;;;;;;1.75;0.25;;;;;;;;5004584;28;9511;-69
2021/01/29 13:48:34;;;;;;;;;0.00;0.00;;;;;;;;5003283;28;9701;-68
2021/01/29 13:51:19;;;;;;;;;0.50;0.00;;;;;;;;5004534;28;9528;-70
2021/01/29 13:53:46;;;;;;;;;1.00;0.00;;;;;;;;5003822;28;9568;-70
2021/01/29 13:56:36;;;;;;;;;2.00;0.00;;;;;;;;5003935;28;9420;-70
2021/01/29 13:59:10;;;;;;;;;0.00;0.00;;;;;;;;4992112;28;9499;-71
2021/01/29 14:01:42;;;;;;;;;2.00;0.00;;;;;;;;5006287;28;9493;-70
2021/01/29 14:04:14;;;;;;;;;2.00;0.75;;;;;;;;5016141;28;9451;-71
2021/01/29 14:06:41;;;;;;;;;0.00;0.00;;;;;;;;5012748;28;9638;-70
2021/01/29 14:09:08;;;;;;;;;2.00;0.00;;;;;;;;5004173;28;9688;-70
2021/01/29 14:11:45;;;;;;;;;0.75;0.75;;;;;;;;5003859;28;9646;-70
2021/01/29 14:14:15;;;;;;;;;1.00;0.00;;;;;;;;5003104;28;9608;-71
2021/01/29 14:16:53;;;;;;;;;0.00;0.00;;;;;;;;5004057;28;9591;-70
2021/01/29 14:19:33;;;;;;;;;1.25;0.00;;;;;;;;5003245;28;9584;-71
2021/01/29 14:22:06;;;;;;;;;0.00;0.00;;;;;;;;4984213;28;9677;-70
2021/01/29 14:24:46;;;;;;;;;0.00;0.00;;;;;;;;5003771;28;9719;-71
2021/01/29 14:27:26;;;;;;;;;0.00;0.00;;;;;;;;4999020;28;9641;-71
2021/01/29 14:30:01;;;;;;;;;0.50;0.00;;;;;;;;5001485;28;9575;-71
2021/01/29 14:32:50;;;;;;;;;1.00;1.00;;;;;;;;5000744;28;9579;-71
2021/01/29 14:35:24;;;;;;;;;0.50;0.50;;;;;;;;5001646;28;9501;-70
2021/01/29 14:38:19;;;;;;;;;0.00;0.00;;;;;;;;5001986;28;9572;-71
2021/01/29 14:40:53;;;;;;;;;0.00;0.00;;;;;;;;4959183;28;9755;-71
2021/01/29 14:43:27;;;;;;;;;0.00;0.00;;;;;;;;5000663;28;9758;-70
2021/01/29 14:45:58;;;;;;;;;0.00;0.00;;;;;;;;4993420;28;9742;-71
2021/01/29 14:48:55;;;;;;;;;0.00;0.00;;;;;;;;4996156;28;10542;-71
2021/01/29 14:51:26;;;;;;;;;0.00;0.00;;;;;;;;4989849;28;9571;-71
2021/01/29 14:53:58;;;;;;;;;0.50;0.50;;;;;;;;4994746;28;9677;-71
2021/01/29 14:56:30;;;;;;;;;0.00;0.00;;;;;;;;5001754;28;9647;-71
2021/01/29 14:59:03;;;;;;;;;1.00;1.00;;;;;;;;5000921;28;9692;-71
2021/01/29 15:01:30;;;;;;;;;1.00;1.00;;;;;;;;5000517;28;9717;-71
2021/01/29 15:04:03;;;;;;;;;1.75;1.00;;;;;;;;5013391;28;9748;-71
2021/01/29 15:06:32;;;;;;;;;0.25;0.25;;;;;;;;5000422;28;9741;-71
2021/01/29 15:09:03;;;;;;;;;0.75;0.75;;;;;;;;5001414;28;9731;-71
2021/01/29 15:11:32;;;;;;;;;1.00;1.00;;;;;;;;5000222;28;9723;-71
2021/01/29 15:14:00;;;;;;;;;2.00;0.25;;;;;;;;5009473;28;9591;-71
2021/01/29 15:16:49;;;;;;;;;1.50;0.00;;;;;;;;5000776;28;9737;-71
2021/01/29 15:19:27;;;;;;;;;1.25;1.25;;;;;;;;4994697;28;9729;-71
2021/01/29 15:21:56;;;;;;;;;0.00;0.00;;;;;;;;4984054;28;9732;-71
2021/01/29 15:24:30;;;;;;;;;1.75;1.00;;;;;;;;5000414;28;10381;-71
2021/01/29 15:26:59;;;;;;;;;1.50;1.50;;;;;;;;5001369;28;9817;-71
2021/01/29 15:29:27;;;;;;;;;0.00;0.00;;;;;;;;5001832;28;9736;-70
2021/01/29 15:31:56;;;;;;;;;0.00;0.00;;;;;;;;4986321;28;9690;-71
2021/01/29 15:34:59;;;;;;;;;2.00;2.00;;;;;;;;5004779;28;9670;-71
2021/01/29 15:38:08;;;;;;;;;1.00;1.00;;;;;;;;5006023;28;9738;-70
2021/01/29 15:40:50;;;;;;;;;3.00;2.00;;;;;;;;5010587;28;11254;-71
2021/01/29 15:43:57;;;;;;;;;1.00;1.00;;;;;;;;5006703;28;9843;-70
2021/01/29 15:46:51;;;;;;;;;3.50;0.00;;;;;;;;5009470;28;9587;-71
2021/01/29 15:49:40;;;;;;;;;0.25;0.25;;;;;;;;5001762;28;9657;-70
2021/01/29 15:52:10;;;;;;;;;0.00;0.00;;;;;;;;5004802;28;9667;-70
2021/01/29 15:54:46;;;;;;;;;1.00;0.00;;;;;;;;5001778;28;9749;-70
2021/01/29 15:57:26;;;;;;;;;1.00;0.00;;;;;;;;5005586;28;9673;-70
2021/01/29 15:59:56;;;;;;;;;0.00;0.00;;;;;;;;4993951;28;9656;-70